sensor_id;sensor_type;location;lat;lon;timestamp;pressure;altitude;pressure_sealevel;temperature;humidity
51287;BME280;37364;46.974;18.916;2023-09-19T00:01:21;155857.81;;;21.80;100.00
51287;BME280;37364;46.974;18.916;2023-09-19T00:03:51;155846.03;;;21.76;100.00
51287;BME280;37364;46.974;18.916;2023-09-19T00:06:22;155830.38;;;21.69;100.00
51287;BME280;37364;46.974;18.916;2023-09-19T00:08:53;155827.81;;;21.68;100.00
51287;BME280;37364;46.974;18.916;2023-09-19T00:11:28;155819.97;;;21.65;100.00
51287;BME280;37364;46.974;18.916;2023-09-19T00:13:58;155812.16;;;21.62;100.00
51287;BME280;37364;46.974;18.916;2023-09-19T00:16:29;155799.09;;;21.57;100.00
51287;BME280;37364;46.974;18.916;2023-09-19T00:19:00;155791.25;;;21.54;100.00
51287;BME280;37364;46.974;18.916;2023-09-19T00:21:34;155776.94;;;21.48;100.00
51287;BME280;37364;46.974;18.916;2023-09-19T00:24:05;155767.81;;;21.45;100.00
51287;BME280;37364;46.974;18.916;2023-09-19T00:26:39;155770.41;;;21.46;100.00
51287;BME280;37364;46.974;18.916;2023-09-19T00:29:10;155769.09;;;21.45;100.00
51287;BME280;37364;46.974;18.916;2023-09-19T00:31:44;155761.22;;;21.42;100.00
51287;BME280;37364;46.974;18.916;2023-09-19T00:34:16;155752.13;;;21.39;100.00
51287;BME280;37364;46.974;18.916;2023-09-19T00:36:47;155758.63;;;21.41;100.00
51287;BME280;37364;46.974;18.916;2023-09-19T00:39:19;155759.91;;;21.42;100.00
51287;BME280;37364;46.974;18.916;2023-09-19T00:41:55;155750.78;;;21.38;100.00
51287;BME280;37364;46.974;18.916;2023-09-19T00:44:31;155749.50;;;21.38;100.00
51287;BME280;37364;46.974;18.916;2023-09-19T00:47:04;155741.69;;;21.35;100.00
51287;BME280;37364;46.974;18.916;2023-09-19T00:49:39;155743.00;;;21.35;100.00
51287;BME280;37364;46.974;18.916;2023-09-19T00:52:10;155745.56;;;21.36;100.00
51287;BME280;37364;46.974;18.916;2023-09-19T00:54:42;155729.94;;;21.30;100.00
51287;BME280;37364;46.974;18.916;2023-09-19T00:57:15;155722.13;;;21.27;100.00
51287;BME280;37364;46.974;18.916;2023-09-19T00:59:47;155720.81;;;21.26;100.00
51287;BME280;37364;46.974;18.916;2023-09-19T01:02:19;155719.50;;;21.26;100.00
51287;BME280;37364;46.974;18.916;2023-09-19T01:04:49;155713.00;;;21.23;100.00
51287;BME280;37364;46.974;18.916;2023-09-19T01:07:20;155707.78;;;21.21;100.00
51287;BME280;37364;46.974;18.916;2023-09-19T01:09:51;155710.38;;;21.22;100.00
51287;BME280;37364;46.974;18.916;2023-09-19T01:12:30;155705.16;;;21.20;100.00
51287;BME280;37364;46.974;18.916;2023-09-19T01:15:09;155711.66;;;21.23;100.00
51287;BME280;37364;46.974;18.916;2023-09-19T01:17:47;155698.66;;;21.18;100.00
51287;BME280;37364;46.974;18.916;2023-09-19T01:20:27;155705.16;;;21.20;100.00
51287;BME280;37364;46.974;18.916;2023-09-19T01:23:09;155719.50;;;21.26;100.00
51287;BME280;37364;46.974;18.916;2023-09-19T01:26:06;155702.56;;;21.19;100.00
51287;BME280;37364;46.974;18.916;2023-09-19T01:29:12;155694.75;;;21.16;100.00
51287;BME280;37364;46.974;18.916;2023-09-19T01:31:53;155699.94;;;21.18;100.00
51287;BME280;37364;46.974;18.916;2023-09-19T01:34:24;155689.53;;;21.14;100.00
51287;BME280;37364;46.974;18.916;2023-09-19T01:36:54;155685.59;;;21.12;100.00
51287;BME280;37364;46.974;18.916;2023-09-19T01:39:25;155684.31;;;21.12;100.00
51287;BME280;37364;46.974;18.916;2023-09-19T01:41:59;155676.47;;;21.09;100.00
51287;BME280;37364;46.974;18.916;2023-09-19T01:44:40;155663.47;;;21.04;100.00
51287;BME280;37364;46.974;18.916;2023-09-19T01:47:26;155636.06;;;20.93;100.00
51287;BME280;37364;46.974;18.916;2023-09-19T01:52:57;155647.81;;;20.98;100.00
51287;BME280;37364;46.974;18.916;2023-09-19T01:55:29;155637.41;;;20.93;100.00
51287;BME280;37364;46.974;18.916;2023-09-19T01:58:04;155617.84;;;20.86;100.00
51287;BME280;37364;46.974;18.916;2023-09-19T02:00:38;155598.28;;;20.78;100.00
51287;BME280;37364;46.974;18.916;2023-09-19T02:03:14;155596.94;;;20.78;100.00
51287;BME280;37364;46.974;18.916;2023-09-19T02:05:51;155581.31;;;20.71;100.00
51287;BME280;37364;46.974;18.916;2023-09-19T02:08:24;155585.25;;;20.73;100.00
51287;BME280;37364;46.974;18.916;2023-09-19T02:10:57;155548.72;;;20.59;100.00
51287;BME280;37364;46.974;18.916;2023-09-19T02:13:28;155550.06;;;20.59;100.00
51287;BME280;37364;46.974;18.916;2023-09-19T02:15:59;155518.75;;;20.47;100.00
51287;BME280;37364;46.974;18.916;2023-09-19T02:18:34;155492.69;;;20.37;100.00
51287;BME280;37364;46.974;18.916;2023-09-19T02:21:06;155482.22;;;20.32;100.00
51287;BME280;37364;46.974;18.916;2023-09-19T02:23:39;155462.72;;;20.25;100.00
51287;BME280;37364;46.974;18.916;2023-09-19T02:26:09;155464.00;;;20.25;100.00
51287;BME280;37364;46.974;18.916;2023-09-19T02:28:41;155460.09;;;20.24;100.00
51287;BME280;37364;46.974;18.916;2023-09-19T02:31:13;155454.88;;;20.22;100.00
51287;BME280;37364;46.974;18.916;2023-09-19T02:33:46;155448.38;;;20.19;100.00
51287;BME280;37364;46.974;18.916;2023-09-19T02:36:16;155444.47;;;20.18;100.00
51287;BME280;37364;46.974;18.916;2023-09-19T02:38:47;155436.63;;;20.14;100.00
51287;BME280;37364;46.974;18.916;2023-09-19T02:41:17;155428.84;;;20.11;100.00
51287;BME280;37364;46.974;18.916;2023-09-19T02:43:48;155411.88;;;20.05;100.00
51287;BME280;37364;46.974;18.916;2023-09-19T02:46:18;155419.69;;;20.08;100.00
51287;BME280;37364;46.974;18.916;2023-09-19T02:48:51;155411.88;;;20.05;100.00
51287;BME280;37364;46.974;18.916;2023-09-19T02:51:22;155400.16;;;20.00;100.00
51287;BME280;37364;46.974;18.916;2023-09-19T02:53:52;155402.75;;;20.01;100.00
51287;BME280;37364;46.974;18.916;2023-09-19T02:56:23;155391.03;;;19.97;100.00
51287;BME280;37364;46.974;18.916;2023-09-19T02:58:55;155385.81;;;19.94;100.00
51287;BME280;37364;46.974;18.916;2023-09-19T03:01:28;155380.63;;;19.92;100.00
51287;BME280;37364;46.974;18.916;2023-09-19T03:04:02;155377.97;;;19.91;100.00
51287;BME280;37364;46.974;18.916;2023-09-19T03:06:35;155367.56;;;19.87;100.00
51287;BME280;37364;46.974;18.916;2023-09-19T03:09:06;155366.28;;;19.87;100.00
51287;BME280;37364;46.974;18.916;2023-09-19T03:11:39;155363.69;;;19.86;100.00
51287;BME280;37364;46.974;18.916;2023-09-19T03:14:10;155362.34;;;19.85;100.00
51287;BME280;37364;46.974;18.916;2023-09-19T03:16:43;155350.66;;;19.81;100.00
51287;BME280;37364;46.974;18.916;2023-09-19T03:19:17;155350.66;;;19.81;100.00
51287;BME280;37364;46.974;18.916;2023-09-19T03:21:48;155331.09;;;19.73;100.00
51287;BME280;37364;46.974;18.916;2023-09-19T03:24:19;155328.53;;;19.72;100.00
51287;BME280;37364;46.974;18.916;2023-09-19T03:26:50;155306.31;;;19.63;100.00
51287;BME280;37364;46.974;18.916;2023-09-19T03:29:21;155305.00;;;19.63;100.00
51287;BME280;37364;46.974;18.916;2023-09-19T03:31:53;155294.59;;;19.59;100.00
51287;BME280;37364;46.974;18.916;2023-09-19T03:34:26;155280.28;;;19.53;100.00
51287;BME280;37364;46.974;18.916;2023-09-19T03:36:57;155271.16;;;19.49;100.00
51287;BME280;37364;46.974;18.916;2023-09-19T03:39:27;155259.44;;;19.45;100.00
51287;BME280;37364;46.974;18.916;2023-09-19T03:42:01;155265.94;;;19.47;100.00
51287;BME280;37364;46.974;18.916;2023-09-19T03:44:31;155247.69;;;19.40;100.00
51287;BME280;37364;46.974;18.916;2023-09-19T03:47:04;155252.91;;;19.42;100.00
51287;BME280;37364;46.974;18.916;2023-09-19T03:49:37;155242.47;;;19.38;100.00
51287;BME280;37364;46.974;18.916;2023-09-19T03:52:08;155238.56;;;19.36;100.00
51287;BME280;37364;46.974;18.916;2023-09-19T03:54:38;155238.56;;;19.36;100.00
51287;BME280;37364;46.974;18.916;2023-09-19T03:57:11;155229.50;;;19.33;100.00
51287;BME280;37364;46.974;18.916;2023-09-19T03:59:44;155225.56;;;19.31;100.00
51287;BME280;37364;46.974;18.916;2023-09-19T04:02:14;155230.78;;;19.33;100.00
51287;BME280;37364;46.974;18.916;2023-09-19T04:04:53;155217.72;;;19.28;100.00
51287;BME280;37364;46.974;18.916;2023-09-19T04:07:23;155220.38;;;19.29;100.00
51287;BME280;37364;46.974;18.916;2023-09-19T04:09:56;155217.72;;;19.28;100.00
51287;BME280;37364;46.974;18.916;2023-09-19T04:12:27;155237.28;;;19.36;100.00
51287;BME280;37364;46.974;18.916;2023-09-19T04:14:57;155249.03;;;19.41;100.00
51287;BME280;37364;46.974;18.916;2023-09-19T04:17:28;155252.91;;;19.42;100.00
51287;BME280;37364;46.974;18.916;2023-09-19T04:20:05;155260.72;;;19.45;100.00
51287;BME280;37364;46.974;18.916;2023-09-19T04:22:35;155278.97;;;19.52;100.00
51287;BME280;37364;46.974;18.916;2023-09-19T04:25:07;155271.16;;;19.49;100.00
51287;BME280;37364;46.974;18.916;2023-09-19T04:27:37;155286.75;;;19.55;100.00
51287;BME280;37364;46.974;18.916;2023-09-19T04:30:09;155291.97;;;19.58;100.00
51287;BME280;37364;46.974;18.916;2023-09-19T04:32:40;155288.06;;;19.56;100.00
51287;BME280;37364;46.974;18.916;2023-09-19T04:35:13;155285.47;;;19.55;100.00
51287;BME280;37364;46.974;18.916;2023-09-19T04:37:43;155290.69;;;19.57;100.00
51287;BME280;37364;46.974;18.916;2023-09-19T04:40:15;155295.91;;;19.59;100.00
51287;BME280;37364;46.974;18.916;2023-09-19T04:42:53;155293.25;;;19.58;100.00
51287;BME280;37364;46.974;18.916;2023-09-19T04:45:26;155288.06;;;19.56;100.00
51287;BME280;37364;46.974;18.916;2023-09-19T04:47:59;155298.53;;;19.60;100.00
51287;BME280;37364;46.974;18.916;2023-09-19T04:50:32;155315.44;;;19.67;100.00
51287;BME280;37364;46.974;18.916;2023-09-19T04:53:08;155310.22;;;19.65;100.00
51287;BME280;37364;46.974;18.916;2023-09-19T04:55:39;155299.81;;;19.61;100.00
51287;BME280;37364;46.974;18.916;2023-09-19T04:58:09;155306.31;;;19.63;100.00
51287;BME280;37364;46.974;18.916;2023-09-19T05:00:40;155312.81;;;19.66;100.00
51287;BME280;37364;46.974;18.916;2023-09-19T05:03:10;155306.31;;;19.63;100.00
51287;BME280;37364;46.974;18.916;2023-09-19T05:05:43;155321.94;;;19.69;100.00
51287;BME280;37364;46.974;18.916;2023-09-19T05:08:14;155324.56;;;19.70;100.00
51287;BME280;37364;46.974;18.916;2023-09-19T05:10:44;155348.03;;;19.80;100.00
51287;BME280;37364;46.974;18.916;2023-09-19T05:13:14;155389.75;;;19.96;100.00
51287;BME280;37364;46.974;18.916;2023-09-19T05:15:45;155402.75;;;20.01;100.00
51287;BME280;37364;46.974;18.916;2023-09-19T05:18:15;155443.16;;;20.17;100.00
51287;BME280;37364;46.974;18.916;2023-09-19T05:20:48;155444.47;;;20.18;100.00
51287;BME280;37364;46.974;18.916;2023-09-19T05:23:20;155428.84;;;20.11;100.00
51287;BME280;37364;46.974;18.916;2023-09-19T05:25:51;155428.84;;;20.11;100.00
51287;BME280;37364;46.974;18.916;2023-09-19T05:28:21;155410.56;;;20.04;100.00
51287;BME280;37364;46.974;18.916;2023-09-19T05:30:52;155371.47;;;19.89;100.00
51287;BME280;37364;46.974;18.916;2023-09-19T05:33:23;155393.66;;;19.98;100.00
51287;BME280;37364;46.974;18.916;2023-09-19T05:35:56;155415.78;;;20.06;100.00
51287;BME280;37364;46.974;18.916;2023-09-19T05:38:26;155423.63;;;20.09;100.00
51287;BME280;37364;46.974;18.916;2023-09-19T05:40:57;155380.63;;;19.92;100.00
51287;BME280;37364;46.974;18.916;2023-09-19T05:43:28;155374.13;;;19.90;100.00
51287;BME280;37364;46.974;18.916;2023-09-19T05:45:59;155388.44;;;19.95;100.00
51287;BME280;37364;46.974;18.916;2023-09-19T05:48:30;155355.88;;;19.83;100.00
51287;BME280;37364;46.974;18.916;2023-09-19T05:51:03;155319.34;;;19.68;100.00
51287;BME280;37364;46.974;18.916;2023-09-19T05:53:33;155325.84;;;19.71;100.00
51287;BME280;37364;46.974;18.916;2023-09-19T05:56:03;155329.81;;;19.72;100.00
51287;BME280;37364;46.974;18.916;2023-09-19T05:58:34;155276.34;;;19.51;100.00
51287;BME280;37364;46.974;18.916;2023-09-19T06:01:04;155241.19;;;19.38;100.00
51287;BME280;37364;46.974;18.916;2023-09-19T06:03:34;155211.25;;;19.26;100.00
51287;BME280;37364;46.974;18.916;2023-09-19T06:06:08;155116.19;;;18.88;100.00
51287;BME280;37364;46.974;18.916;2023-09-19T06:08:38;155078.38;;;18.73;100.00
51287;BME280;37364;46.974;18.916;2023-09-19T06:11:11;155045.84;;;18.61;100.00
51287;BME280;37364;46.974;18.916;2023-09-19T06:13:41;155015.91;;;18.49;100.00
51287;BME280;37364;46.974;18.916;2023-09-19T06:16:14;154996.41;;;18.41;100.00
51287;BME280;37364;46.974;18.916;2023-09-19T06:18:47;155002.88;;;18.44;100.00
51287;BME280;37364;46.974;18.916;2023-09-19T06:21:22;154986.00;;;18.37;100.00
51287;BME280;37364;46.974;18.916;2023-09-19T06:23:53;154980.78;;;18.35;100.00
51287;BME280;37364;46.974;18.916;2023-09-19T06:26:28;154972.94;;;18.32;100.00
51287;BME280;37364;46.974;18.916;2023-09-19T06:28:59;154958.63;;;18.26;100.00
51287;BME280;37364;46.974;18.916;2023-09-19T06:31:34;154935.25;;;18.17;100.00
51287;BME280;37364;46.974;18.916;2023-09-19T06:34:05;154967.75;;;18.30;100.00
51287;BME280;37364;46.974;18.916;2023-09-19T06:36:37;154958.63;;;18.26;100.00
51287;BME280;37364;46.974;18.916;2023-09-19T06:39:08;154971.66;;;18.31;100.00
51287;BME280;37364;46.974;18.916;2023-09-19T06:41:41;154965.16;;;18.29;100.00
51287;BME280;37364;46.974;18.916;2023-09-19T06:44:13;154936.53;;;18.17;100.00
51287;BME280;37364;46.974;18.916;2023-09-19T06:46:44;154939.09;;;18.18;100.00
51287;BME280;37364;46.974;18.916;2023-09-19T06:49:17;154911.81;;;18.08;100.00
51287;BME280;37364;46.974;18.916;2023-09-19T06:51:50;154894.84;;;18.01;100.00
51287;BME280;37364;46.974;18.916;2023-09-19T06:54:20;154880.59;;;17.95;100.00
51287;BME280;37364;46.974;18.916;2023-09-19T06:56:50;154866.28;;;17.90;100.00
51287;BME280;37364;46.974;18.916;2023-09-19T06:59:22;154892.28;;;18.00;100.00
51287;BME280;37364;46.974;18.916;2023-09-19T07:01:52;154868.84;;;17.91;100.00
51287;BME280;37364;46.974;18.916;2023-09-19T07:04:23;154871.47;;;17.92;100.00
51287;BME280;37364;46.974;18.916;2023-09-19T07:06:55;154788.16;;;17.59;100.00
51287;BME280;37364;46.974;18.916;2023-09-19T07:09:26;154797.25;;;17.63;100.00
51287;BME280;37364;46.974;18.916;2023-09-19T07:11:58;154789.44;;;17.59;100.00
51287;BME280;37364;46.974;18.916;2023-09-19T07:14:33;154781.66;;;17.56;100.00
51287;BME280;37364;46.974;18.916;2023-09-19T07:17:03;154803.75;;;17.65;100.00
51287;BME280;37364;46.974;18.916;2023-09-19T07:19:34;154738.72;;;17.39;100.00
51287;BME280;37364;46.974;18.916;2023-09-19T07:22:06;154753.03;;;17.45;100.00
51287;BME280;37364;46.974;18.916;2023-09-19T07:24:37;154781.66;;;17.56;100.00
51287;BME280;37364;46.974;18.916;2023-09-19T07:27:07;154764.72;;;17.50;100.00
51287;BME280;37364;46.974;18.916;2023-09-19T07:29:38;154788.16;;;17.59;100.00
51287;BME280;37364;46.974;18.916;2023-09-19T07:32:10;154768.63;;;17.51;100.00
51287;BME280;37364;46.974;18.916;2023-09-19T07:34:41;154728.31;;;17.35;100.00
51287;BME280;37364;46.974;18.916;2023-09-19T07:37:14;154691.91;;;17.21;100.00
51287;BME280;37364;46.974;18.916;2023-09-19T07:39:45;154669.78;;;17.12;100.00
51287;BME280;37364;46.974;18.916;2023-09-19T07:42:15;154689.28;;;17.20;100.00
51287;BME280;37364;46.974;18.916;2023-09-19T07:44:45;154711.38;;;17.29;100.00
51287;BME280;37364;46.974;18.916;2023-09-19T07:47:18;154715.28;;;17.30;100.00
51287;BME280;37364;46.974;18.916;2023-09-19T07:49:48;154737.44;;;17.39;100.00
51287;BME280;37364;46.974;18.916;2023-09-19T07:52:21;154743.91;;;17.42;100.00
51287;BME280;37364;46.974;18.916;2023-09-19T07:54:51;154747.81;;;17.43;100.00
51287;BME280;37364;46.974;18.916;2023-09-19T07:57:21;154754.31;;;17.46;100.00
51287;BME280;37364;46.974;18.916;2023-09-19T07:59:52;154754.31;;;17.46;100.00
51287;BME280;37364;46.974;18.916;2023-09-19T08:02:22;154773.84;;;17.53;100.00
51287;BME280;37364;46.974;18.916;2023-09-19T08:04:53;154786.88;;;17.58;100.00
51287;BME280;37364;46.974;18.916;2023-09-19T08:07:28;154781.66;;;17.56;100.00
51287;BME280;37364;46.974;18.916;2023-09-19T08:09:58;154814.16;;;17.69;100.00
51287;BME280;37364;46.974;18.916;2023-09-19T08:12:29;154811.56;;;17.68;100.00
51287;BME280;37364;46.974;18.916;2023-09-19T08:15:02;154805.03;;;17.66;100.00
51287;BME280;37364;46.974;18.916;2023-09-19T08:17:34;154827.19;;;17.74;100.00
51287;BME280;37364;46.974;18.916;2023-09-19T08:20:06;154845.38;;;17.82;100.00
51287;BME280;37364;46.974;18.916;2023-09-19T08:22:52;154838.88;;;17.79;100.00
51287;BME280;37364;46.974;18.916;2023-09-19T08:25:23;154844.06;;;17.81;100.00
51287;BME280;37364;46.974;18.916;2023-09-19T08:27:55;154892.28;;;18.00;100.00
51287;BME280;37364;46.974;18.916;2023-09-19T08:30:27;154948.22;;;18.22;100.00
51287;BME280;37364;46.974;18.916;2023-09-19T08:32:57;155000.31;;;18.43;100.00
51287;BME280;37364;46.974;18.916;2023-09-19T08:35:29;155064.06;;;18.68;100.00
51287;BME280;37364;46.974;18.916;2023-09-19T08:38:01;155108.38;;;18.85;100.00
51287;BME280;37364;46.974;18.916;2023-09-19T08:40:37;155180.00;;;19.13;100.00
51287;BME280;37364;46.974;18.916;2023-09-19T08:43:09;155225.56;;;19.31;100.00
51287;BME280;37364;46.974;18.916;2023-09-19T08:45:40;155202.13;;;19.22;100.00
51287;BME280;37364;46.974;18.916;2023-09-19T08:48:17;155182.59;;;19.14;100.00
51287;BME280;37364;46.974;18.916;2023-09-19T08:50:54;155123.97;;;18.91;100.00
51287;BME280;37364;46.974;18.916;2023-09-19T08:53:41;155189.13;;;19.17;100.00
51287;BME280;37364;46.974;18.916;2023-09-19T08:56:14;155185.22;;;19.15;100.00
51287;BME280;37364;46.974;18.916;2023-09-19T08:58:50;155215.16;;;19.27;100.00
51287;BME280;37364;46.974;18.916;2023-09-19T09:01:21;155232.06;;;19.34;100.00
51287;BME280;37364;46.974;18.916;2023-09-19T09:03:53;155176.09;;;19.12;100.00
51287;BME280;37364;46.974;18.916;2023-09-19T09:06:25;155185.22;;;19.15;100.00
51287;BME280;37364;46.974;18.916;2023-09-19T09:09:00;155216.44;;;19.28;100.00
51287;BME280;37364;46.974;18.916;2023-09-19T09:11:33;155226.88;;;19.32;100.00
51287;BME280;37364;46.974;18.916;2023-09-19T09:14:06;155250.31;;;19.41;100.00
51287;BME280;37364;46.974;18.916;2023-09-19T09:16:37;155246.41;;;19.40;100.00
51287;BME280;37364;46.974;18.916;2023-09-19T09:19:08;155186.50;;;19.16;100.00
51287;BME280;37364;46.974;18.916;2023-09-19T09:21:40;155203.41;;;19.23;100.00
51287;BME280;37364;46.974;18.916;2023-09-19T09:24:32;155222.94;;;19.30;100.00
51287;BME280;37364;46.974;18.916;2023-09-19T09:27:06;155238.56;;;19.36;100.00
51287;BME280;37364;46.974;18.916;2023-09-19T09:29:42;155327.19;;;19.71;100.00
51287;BME280;37364;46.974;18.916;2023-09-19T09:32:20;155340.22;;;19.77;100.00
51287;BME280;37364;46.974;18.916;2023-09-19T09:34:53;155384.53;;;19.94;100.00
51287;BME280;37364;46.974;18.916;2023-09-19T09:37:28;155398.88;;;20.00;100.00
51287;BME280;37364;46.974;18.916;2023-09-19T09:40:02;155418.41;;;20.07;100.00
51287;BME280;37364;46.974;18.916;2023-09-19T09:42:46;155478.34;;;20.31;100.00
51287;BME280;37364;46.974;18.916;2023-09-19T09:45:25;155513.53;;;20.45;100.00
51287;BME280;37364;46.974;18.916;2023-09-19T09:48:05;155582.66;;;20.72;100.00
51287;BME280;37364;46.974;18.916;2023-09-19T09:50:47;155610.00;;;20.83;100.00
51287;BME280;37364;46.974;18.916;2023-09-19T09:53:25;155598.28;;;20.78;100.00
51287;BME280;37364;46.974;18.916;2023-09-19T09:56:03;155663.47;;;21.04;100.00
51287;BME280;37364;46.974;18.916;2023-09-19T09:58:40;155692.16;;;21.15;100.00
51287;BME280;37364;46.974;18.916;2023-09-19T10:01:22;155788.66;;;21.53;100.00
51287;BME280;37364;46.974;18.916;2023-09-19T10:03:57;155813.44;;;21.63;100.00
51287;BME280;37364;46.974;18.916;2023-09-19T10:06:40;155851.25;;;21.78;100.00
51287;BME280;37364;46.974;18.916;2023-09-19T10:09:14;155874.72;;;21.87;100.00
51287;BME280;37364;46.974;18.916;2023-09-19T10:12:03;155863.00;;;21.82;100.00
51287;BME280;37364;46.974;18.916;2023-09-19T10:14:38;155779.53;;;21.49;100.00
51287;BME280;37364;46.974;18.916;2023-09-19T10:17:10;155809.53;;;21.61;100.00
51287;BME280;37364;46.974;18.916;2023-09-19T10:19:46;155855.16;;;21.79;100.00
51287;BME280;37364;46.974;18.916;2023-09-19T10:22:26;155898.22;;;21.96;100.00
51287;BME280;37364;46.974;18.916;2023-09-19T10:25:00;155958.22;;;22.20;100.00
51287;BME280;37364;46.974;18.916;2023-09-19T10:27:39;156104.38;;;22.77;100.00
51287;BME280;37364;46.974;18.916;2023-09-19T10:30:11;156135.75;;;22.89;100.00
51287;BME280;37364;46.974;18.916;2023-09-19T10:32:43;156078.31;;;22.67;100.00
51287;BME280;37364;46.974;18.916;2023-09-19T10:35:14;155988.28;;;22.31;100.00
51287;BME280;37364;46.974;18.916;2023-09-19T10:37:47;155924.31;;;22.06;100.00
51287;BME280;37364;46.974;18.916;2023-09-19T10:40:21;155987.00;;;22.31;100.00
51287;BME280;37364;46.974;18.916;2023-09-19T10:43:01;156065.25;;;22.62;100.00
51287;BME280;37364;46.974;18.916;2023-09-19T10:45:33;156019.56;;;22.44;100.00
51287;BME280;37364;46.974;18.916;2023-09-19T10:48:06;156044.38;;;22.54;100.00
51287;BME280;37364;46.974;18.916;2023-09-19T10:50:45;156078.31;;;22.67;100.00
51287;BME280;37364;46.974;18.916;2023-09-19T10:53:17;155998.72;;;22.36;100.00
51287;BME280;37364;46.974;18.916;2023-09-19T10:55:52;156204.94;;;23.17;100.00
51287;BME280;37364;46.974;18.916;2023-09-19T10:58:31;156263.69;;;23.40;100.00
51287;BME280;37364;46.974;18.916;2023-09-19T11:01:07;156195.84;;;23.13;100.00
51287;BME280;37364;46.974;18.916;2023-09-19T11:03:39;156220.63;;;23.23;100.00
51287;BME280;37364;46.974;18.916;2023-09-19T11:06:12;156191.91;;;23.12;100.00
51287;BME280;37364;46.974;18.916;2023-09-19T11:08:58;156168.41;;;23.02;100.00
51287;BME280;37364;46.974;18.916;2023-09-19T11:11:45;156296.34;;;23.53;100.00
51287;BME280;37364;46.974;18.916;2023-09-19T11:14:38;156353.75;;;23.75;100.00
51287;BME280;37364;46.974;18.916;2023-09-19T11:17:30;156377.31;;;23.84;100.00
51287;BME280;37364;46.974;18.916;2023-09-19T11:20:27;156322.44;;;23.63;100.00
51287;BME280;37364;46.974;18.916;2023-09-19T11:23:20;156323.72;;;23.63;100.00
51287;BME280;37364;46.974;18.916;2023-09-19T11:25:58;156296.34;;;23.53;100.00
51287;BME280;37364;46.974;18.916;2023-09-19T11:28:35;156355.09;;;23.76;100.00
51287;BME280;37364;46.974;18.916;2023-09-19T11:34:46;156357.69;;;23.77;100.00
51287;BME280;37364;46.974;18.916;2023-09-19T11:40:38;156411.28;;;23.98;100.00
51287;BME280;37364;46.974;18.916;2023-09-19T11:43:33;156415.22;;;23.99;100.00
51287;BME280;37364;46.974;18.916;2023-09-19T11:46:10;156500.09;;;24.33;100.00
51287;BME280;37364;46.974;18.916;2023-09-19T11:48:43;156407.34;;;23.96;100.00
51287;BME280;37364;46.974;18.916;2023-09-19T11:51:19;156302.84;;;23.55;100.00
51287;BME280;37364;46.974;18.916;2023-09-19T11:53:51;156357.69;;;23.77;100.00
51287;BME280;37364;46.974;18.916;2023-09-19T11:56:22;156493.53;;;24.30;100.00
51287;BME280;37364;46.974;18.916;2023-09-19T11:58:56;156577.19;;;24.63;100.00
51287;BME280;37364;46.974;18.916;2023-09-19T12:01:30;156684.31;;;25.05;100.00
51287;BME280;37364;46.974;18.916;2023-09-19T12:04:03;156459.56;;;24.17;100.00
51287;BME280;37364;46.974;18.916;2023-09-19T12:06:36;156334.16;;;23.67;100.00
51287;BME280;37364;46.974;18.916;2023-09-19T12:09:12;156283.25;;;23.47;100.00
51287;BME280;37364;46.974;18.916;2023-09-19T12:11:44;156386.47;;;23.88;100.00
51287;BME280;37364;46.974;18.916;2023-09-19T12:14:22;156318.50;;;23.61;100.00
51287;BME280;37364;46.974;18.916;2023-09-19T12:16:57;156261.09;;;23.39;100.00
51287;BME280;37364;46.974;18.916;2023-09-19T12:19:29;156287.19;;;23.49;100.00
51287;BME280;37364;46.974;18.916;2023-09-19T12:22:03;156202.34;;;23.16;100.00
51287;BME280;37364;46.974;18.916;2023-09-19T12:24:38;156193.19;;;23.12;100.00
51287;BME280;37364;46.974;18.916;2023-09-19T12:27:11;156223.22;;;23.24;100.00
51287;BME280;37364;46.974;18.916;2023-09-19T12:29:43;156261.09;;;23.39;100.00
51287;BME280;37364;46.974;18.916;2023-09-19T12:32:13;156216.72;;;23.21;100.00
51287;BME280;37364;46.974;18.916;2023-09-19T12:34:51;156207.56;;;23.18;100.00
51287;BME280;37364;46.974;18.916;2023-09-19T12:37:26;156352.47;;;23.75;100.00
51287;BME280;37364;46.974;18.916;2023-09-19T12:40:05;156362.94;;;23.79;100.00
51287;BME280;37364;46.974;18.916;2023-09-19T12:42:44;156338.09;;;23.69;100.00
51287;BME280;37364;46.974;18.916;2023-09-19T12:45:16;156522.28;;;24.41;100.00
51287;BME280;37364;46.974;18.916;2023-09-19T12:48:18;156406.06;;;23.96;100.00
51287;BME280;37364;46.974;18.916;2023-09-19T12:51:04;156557.59;;;24.55;100.00
51287;BME280;37364;46.974;18.916;2023-09-19T12:53:41;156412.56;;;23.98;100.00
51287;BME280;37364;46.974;18.916;2023-09-19T12:56:14;156310.69;;;23.58;100.00
51287;BME280;37364;46.974;18.916;2023-09-19T12:58:49;156370.81;;;23.82;100.00
51287;BME280;37364;46.974;18.916;2023-09-19T13:01:22;156411.28;;;23.98;100.00
51287;BME280;37364;46.974;18.916;2023-09-19T13:04:11;156428.25;;;24.04;100.00
51287;BME280;37364;46.974;18.916;2023-09-19T13:06:46;156382.53;;;23.86;100.00
51287;BME280;37364;46.974;18.916;2023-09-19T13:09:21;156373.41;;;23.83;100.00
51287;BME280;37364;46.974;18.916;2023-09-19T13:11:54;156312.00;;;23.59;100.00
51287;BME280;37364;46.974;18.916;2023-09-19T13:14:27;156386.47;;;23.88;100.00